sensor_id;sensor_type;location;lat;lon;timestamp;P1;durP1;ratioP1;P2;durP2;ratioP2
23754;SDS011;12057;52.042;6.830;2022-10-16T00:03:09;16.52;;;2.60;;
23754;SDS011;12057;52.042;6.830;2022-10-16T00:08:11;9.15;;;2.97;;
23754;SDS011;12057;52.042;6.830;2022-10-16T00:13:13;19.25;;;3.28;;
23754;SDS011;12057;52.042;6.830;2022-10-16T00:18:14;29.43;;;4.03;;
23754;SDS011;12057;52.042;6.830;2022-10-16T00:23:14;15.13;;;4.60;;
23754;SDS011;12057;52.042;6.830;2022-10-16T00:28:15;15.30;;;3.90;;
23754;SDS011;12057;52.042;6.830;2022-10-16T00:33:16;14.53;;;3.93;;
23754;SDS011;12057;52.042;6.830;2022-10-16T00:38:17;12.87;;;5.03;;
23754;SDS011;12057;52.042;6.830;2022-10-16T00:53:54;13.73;;;5.30;;
23754;SDS011;12057;52.042;6.830;2022-10-16T01:03:56;34.97;;;5.82;;
23754;SDS011;12057;52.042;6.830;2022-10-16T01:31:27;22.20;;;9.38;;
23754;SDS011;12057;52.042;6.830;2022-10-16T01:36:42;24.10;;;8.85;;
23754;SDS011;12057;52.042;6.830;2022-10-16T01:41:59;19.80;;;8.95;;
23754;SDS011;12057;52.042;6.830;2022-10-16T01:47:05;20.02;;;8.80;;
23754;SDS011;12057;52.042;6.830;2022-10-16T01:52:10;22.30;;;8.80;;
23754;SDS011;12057;52.042;6.830;2022-10-16T01:57:15;23.52;;;8.55;;
23754;SDS011;12057;52.042;6.830;2022-10-16T02:02:18;20.33;;;8.80;;
23754;SDS011;12057;52.042;6.830;2022-10-16T02:07:20;20.50;;;8.60;;
23754;SDS011;12057;52.042;6.830;2022-10-16T02:17:27;22.45;;;7.97;;
23754;SDS011;12057;52.042;6.830;2022-10-16T02:22:30;21.07;;;7.43;;
23754;SDS011;12057;52.042;6.830;2022-10-16T02:28:26;23.90;;;7.10;;
23754;SDS011;12057;52.042;6.830;2022-10-16T02:33:23;13.27;;;5.60;;
23754;SDS011;12057;52.042;6.830;2022-10-16T02:38:26;14.63;;;5.50;;
23754;SDS011;12057;52.042;6.830;2022-10-16T02:48:28;19.77;;;4.50;;
23754;SDS011;12057;52.042;6.830;2022-10-16T02:53:29;12.63;;;5.27;;
23754;SDS011;12057;52.042;6.830;2022-10-16T02:58:30;9.83;;;4.33;;
23754;SDS011;12057;52.042;6.830;2022-10-16T03:03:30;14.13;;;4.20;;
23754;SDS011;12057;52.042;6.830;2022-10-16T03:08:31;10.67;;;4.43;;
23754;SDS011;12057;52.042;6.830;2022-10-16T03:13:32;15.53;;;5.00;;
23754;SDS011;12057;52.042;6.830;2022-10-16T03:18:33;13.23;;;4.00;;
23754;SDS011;12057;52.042;6.830;2022-10-16T03:23:33;12.00;;;3.70;;
23754;SDS011;12057;52.042;6.830;2022-10-16T03:28:34;13.23;;;3.93;;
23754;SDS011;12057;52.042;6.830;2022-10-16T03:33:35;17.63;;;4.20;;
23754;SDS011;12057;52.042;6.830;2022-10-16T03:38:35;5.80;;;3.07;;
23754;SDS011;12057;52.042;6.830;2022-10-16T03:43:36;10.90;;;4.20;;
23754;SDS011;12057;52.042;6.830;2022-10-16T03:48:37;8.27;;;3.23;;
23754;SDS011;12057;52.042;6.830;2022-10-16T03:53:37;11.60;;;4.30;;
23754;SDS011;12057;52.042;6.830;2022-10-16T03:58:38;15.07;;;4.53;;
23754;SDS011;12057;52.042;6.830;2022-10-16T04:03:42;8.47;;;4.80;;
23754;SDS011;12057;52.042;6.830;2022-10-16T04:08:43;13.75;;;3.80;;
23754;SDS011;12057;52.042;6.830;2022-10-16T04:13:44;10.93;;;4.23;;
23754;SDS011;12057;52.042;6.830;2022-10-16T04:18:44;8.97;;;4.13;;
23754;SDS011;12057;52.042;6.830;2022-10-16T04:23:45;5.57;;;3.57;;
23754;SDS011;12057;52.042;6.830;2022-10-16T04:28:46;7.23;;;4.07;;
23754;SDS011;12057;52.042;6.830;2022-10-16T04:33:46;8.37;;;3.60;;
23754;SDS011;12057;52.042;6.830;2022-10-16T04:38:47;9.43;;;3.70;;
23754;SDS011;12057;52.042;6.830;2022-10-16T04:43:48;12.07;;;3.80;;
23754;SDS011;12057;52.042;6.830;2022-10-16T04:48:48;9.20;;;3.60;;
23754;SDS011;12057;52.042;6.830;2022-10-16T04:53:49;10.87;;;3.53;;
23754;SDS011;12057;52.042;6.830;2022-10-16T04:58:50;12.43;;;3.40;;
23754;SDS011;12057;52.042;6.830;2022-10-16T05:03:50;8.93;;;3.57;;
23754;SDS011;12057;52.042;6.830;2022-10-16T05:08:51;11.77;;;2.97;;
23754;SDS011;12057;52.042;6.830;2022-10-16T05:13:52;6.13;;;2.87;;
23754;SDS011;12057;52.042;6.830;2022-10-16T05:18:53;10.33;;;3.10;;
23754;SDS011;12057;52.042;6.830;2022-10-16T05:23:54;14.82;;;2.58;;
23754;SDS011;12057;52.042;6.830;2022-10-16T05:28:55;10.33;;;2.63;;
23754;SDS011;12057;52.042;6.830;2022-10-16T05:33:59;8.90;;;2.70;;
23754;SDS011;12057;52.042;6.830;2022-10-16T05:39:00;5.70;;;2.55;;
23754;SDS011;12057;52.042;6.830;2022-10-16T05:44:03;11.83;;;3.00;;
23754;SDS011;12057;52.042;6.830;2022-10-16T05:49:05;13.80;;;3.00;;
23754;SDS011;12057;52.042;6.830;2022-10-16T05:54:06;15.77;;;2.93;;
23754;SDS011;12057;52.042;6.830;2022-10-16T05:59:06;4.70;;;2.43;;
23754;SDS011;12057;52.042;6.830;2022-10-16T06:04:08;5.50;;;2.70;;
23754;SDS011;12057;52.042;6.830;2022-10-16T06:14:09;12.10;;;4.18;;
23754;SDS011;12057;52.042;6.830;2022-10-16T06:19:10;6.93;;;2.87;;
23754;SDS011;12057;52.042;6.830;2022-10-16T06:24:11;11.87;;;2.87;;
23754;SDS011;12057;52.042;6.830;2022-10-16T06:29:12;10.33;;;3.30;;
23754;SDS011;12057;52.042;6.830;2022-10-16T06:34:12;11.20;;;3.70;;
23754;SDS011;12057;52.042;6.830;2022-10-16T06:39:13;8.80;;;3.40;;
23754;SDS011;12057;52.042;6.830;2022-10-16T06:44:14;12.30;;;4.77;;
23754;SDS011;12057;52.042;6.830;2022-10-16T06:49:15;13.80;;;3.50;;
23754;SDS011;12057;52.042;6.830;2022-10-16T06:54:21;12.88;;;3.58;;
23754;SDS011;12057;52.042;6.830;2022-10-16T06:59:22;9.90;;;5.10;;
23754;SDS011;12057;52.042;6.830;2022-10-16T07:04:23;14.33;;;5.73;;
23754;SDS011;12057;52.042;6.830;2022-10-16T07:09:23;8.13;;;3.63;;
23754;SDS011;12057;52.042;6.830;2022-10-16T07:14:27;9.83;;;3.27;;
23754;SDS011;12057;52.042;6.830;2022-10-16T07:19:30;10.02;;;3.10;;
23754;SDS011;12057;52.042;6.830;2022-10-16T07:24:30;19.63;;;3.47;;
23754;SDS011;12057;52.042;6.830;2022-10-16T07:29:31;11.53;;;3.57;;
23754;SDS011;12057;52.042;6.830;2022-10-16T07:34:32;7.30;;;3.10;;
23754;SDS011;12057;52.042;6.830;2022-10-16T07:39:32;6.20;;;2.53;;
23754;SDS011;12057;52.042;6.830;2022-10-16T07:44:33;12.17;;;2.60;;
23754;SDS011;12057;52.042;6.830;2022-10-16T07:49:34;4.90;;;2.30;;
23754;SDS011;12057;52.042;6.830;2022-10-16T07:54:35;15.27;;;3.20;;
23754;SDS011;12057;52.042;6.830;2022-10-16T07:59:35;10.83;;;3.63;;
23754;SDS011;12057;52.042;6.830;2022-10-16T08:04:36;6.80;;;3.00;;
23754;SDS011;12057;52.042;6.830;2022-10-16T08:09:37;6.07;;;2.77;;
23754;SDS011;12057;52.042;6.830;2022-10-16T08:14:38;6.90;;;2.97;;
23754;SDS011;12057;52.042;6.830;2022-10-16T08:19:38;6.10;;;2.00;;
23754;SDS011;12057;52.042;6.830;2022-10-16T08:24:39;5.87;;;1.80;;
23754;SDS011;12057;52.042;6.830;2022-10-16T08:29:40;7.63;;;2.38;;
23754;SDS011;12057;52.042;6.830;2022-10-16T08:34:41;6.17;;;1.70;;
23754;SDS011;12057;52.042;6.830;2022-10-16T08:39:42;4.37;;;1.83;;
23754;SDS011;12057;52.042;6.830;2022-10-16T08:45:09;16.13;;;2.30;;
23754;SDS011;12057;52.042;6.830;2022-10-16T08:50:10;10.77;;;1.58;;
23754;SDS011;12057;52.042;6.830;2022-10-16T09:00:38;13.65;;;1.70;;
23754;SDS011;12057;52.042;6.830;2022-10-16T09:11:11;13.20;;;2.45;;
23754;SDS011;12057;52.042;6.830;2022-10-16T09:16:57;12.90;;;2.92;;
23754;SDS011;12057;52.042;6.830;2022-10-16T09:21:53;13.55;;;3.90;;
23754;SDS011;12057;52.042;6.830;2022-10-16T09:26:55;12.32;;;4.82;;
23754;SDS011;12057;52.042;6.830;2022-10-16T09:31:56;22.57;;;7.10;;
23754;SDS011;12057;52.042;6.830;2022-10-16T09:37:09;24.05;;;9.52;;
23754;SDS011;12057;52.042;6.830;2022-10-16T09:42:23;24.63;;;8.98;;
23754;SDS011;12057;52.042;6.830;2022-10-16T09:47:41;20.52;;;7.53;;
23754;SDS011;12057;52.042;6.830;2022-10-16T09:52:43;12.40;;;6.25;;
23754;SDS011;12057;52.042;6.830;2022-10-16T10:02:54;14.23;;;5.07;;
23754;SDS011;12057;52.042;6.830;2022-10-16T10:07:58;11.48;;;4.65;;
23754;SDS011;12057;52.042;6.830;2022-10-16T10:13:21;10.45;;;3.85;;
23754;SDS011;12057;52.042;6.830;2022-10-16T10:18:24;11.25;;;5.10;;
23754;SDS011;12057;52.042;6.830;2022-10-16T10:23:26;21.10;;;3.92;;
23754;SDS011;12057;52.042;6.830;2022-10-16T10:33:50;12.77;;;2.42;;
23754;SDS011;12057;52.042;6.830;2022-10-16T10:39:00;13.40;;;2.35;;
23754;SDS011;12057;52.042;6.830;2022-10-16T11:11:10;14.45;;;2.22;;
23754;SDS011;12057;52.042;6.830;2022-10-16T11:16:34;31.48;;;2.55;;
23754;SDS011;12057;52.042;6.830;2022-10-16T11:27:21;12.85;;;2.00;;
23754;SDS011;12057;52.042;6.830;2022-10-16T11:32:29;14.82;;;2.80;;
23754;SDS011;12057;52.042;6.830;2022-10-16T11:37:36;15.55;;;2.30;;
23754;SDS011;12057;52.042;6.830;2022-10-16T11:42:42;14.18;;;1.95;;
23754;SDS011;12057;52.042;6.830;2022-10-16T11:47:50;18.73;;;2.67;;
23754;SDS011;12057;52.042;6.830;2022-10-16T11:58:37;17.20;;;3.83;;
23754;SDS011;12057;52.042;6.830;2022-10-16T12:03:40;16.55;;;2.75;;
23754;SDS011;12057;52.042;6.830;2022-10-16T12:08:47;17.63;;;2.53;;
23754;SDS011;12057;52.042;6.830;2022-10-16T12:13:48;15.60;;;1.95;;
23754;SDS011;12057;52.042;6.830;2022-10-16T12:18:49;16.00;;;2.63;;
23754;SDS011;12057;52.042;6.830;2022-10-16T12:24:03;17.35;;;1.80;;
23754;SDS011;12057;52.042;6.830;2022-10-16T12:29:18;12.57;;;2.25;;
23754;SDS011;12057;52.042;6.830;2022-10-16T12:34:38;17.20;;;1.98;;
23754;SDS011;12057;52.042;6.830;2022-10-16T12:39:42;14.77;;;2.35;;
23754;SDS011;12057;52.042;6.830;2022-10-16T12:44:43;26.20;;;3.40;;
23754;SDS011;12057;52.042;6.830;2022-10-16T12:49:48;11.47;;;1.80;;
23754;SDS011;12057;52.042;6.830;2022-10-16T12:54:50;9.57;;;1.77;;
23754;SDS011;12057;52.042;6.830;2022-10-16T13:10:28;8.95;;;1.73;;
23754;SDS011;12057;52.042;6.830;2022-10-16T13:31:43;9.98;;;2.00;;
23754;SDS011;12057;52.042;6.830;2022-10-16T13:36:46;10.05;;;1.88;;
23754;SDS011;12057;52.042;6.830;2022-10-16T13:42:25;15.48;;;2.78;;
23754;SDS011;12057;52.042;6.830;2022-10-16T13:52:28;13.57;;;2.15;;
23754;SDS011;12057;52.042;6.830;2022-10-16T13:57:29;11.13;;;2.15;;
23754;SDS011;12057;52.042;6.830;2022-10-16T14:07:31;9.33;;;2.20;;
23754;SDS011;12057;52.042;6.830;2022-10-16T14:12:33;8.52;;;1.33;;
23754;SDS011;12057;52.042;6.830;2022-10-16T14:17:35;12.20;;;1.55;;
23754;SDS011;12057;52.042;6.830;2022-10-16T14:32:39;10.00;;;2.42;;
23754;SDS011;12057;52.042;6.830;2022-10-16T14:37:41;17.27;;;2.00;;
23754;SDS011;12057;52.042;6.830;2022-10-16T14:42:43;14.93;;;1.58;;
23754;SDS011;12057;52.042;6.830;2022-10-16T14:47:47;9.35;;;2.30;;
23754;SDS011;12057;52.042;6.830;2022-10-16T14:52:50;13.50;;;2.92;;
23754;SDS011;12057;52.042;6.830;2022-10-16T14:57:51;7.37;;;2.63;;
23754;SDS011;12057;52.042;6.830;2022-10-16T15:02:52;12.60;;;2.50;;
23754;SDS011;12057;52.042;6.830;2022-10-16T15:07:53;15.13;;;2.27;;
23754;SDS011;12057;52.042;6.830;2022-10-16T15:12:55;14.18;;;1.75;;
23754;SDS011;12057;52.042;6.830;2022-10-16T15:17:56;11.43;;;1.90;;
23754;SDS011;12057;52.042;6.830;2022-10-16T15:22:57;8.30;;;2.10;;
23754;SDS011;12057;52.042;6.830;2022-10-16T15:27:58;3.93;;;1.27;;
23754;SDS011;12057;52.042;6.830;2022-10-16T15:33:00;16.38;;;1.60;;
23754;SDS011;12057;52.042;6.830;2022-10-16T15:38:01;7.18;;;1.98;;
23754;SDS011;12057;52.042;6.830;2022-10-16T15:43:02;9.77;;;2.00;;
23754;SDS011;12057;52.042;6.830;2022-10-16T15:48:02;20.10;;;3.00;;
23754;SDS011;12057;52.042;6.830;2022-10-16T15:53:04;29.27;;;3.00;;
23754;SDS011;12057;52.042;6.830;2022-10-16T15:58:05;12.67;;;2.13;;
23754;SDS011;12057;52.042;6.830;2022-10-16T16:03:05;14.47;;;2.93;;
23754;SDS011;12057;52.042;6.830;2022-10-16T16:08:06;10.83;;;2.60;;
23754;SDS011;12057;52.042;6.830;2022-10-16T16:13:07;15.80;;;2.90;;
23754;SDS011;12057;52.042;6.830;2022-10-16T16:18:07;11.00;;;2.27;;
23754;SDS011;12057;52.042;6.830;2022-10-16T16:23:09;18.48;;;3.65;;
23754;SDS011;12057;52.042;6.830;2022-10-16T16:28:10;21.70;;;4.03;;
23754;SDS011;12057;52.042;6.830;2022-10-16T16:33:14;13.90;;;4.32;;
23754;SDS011;12057;52.042;6.830;2022-10-16T16:38:14;17.63;;;4.03;;
23754;SDS011;12057;52.042;6.830;2022-10-16T16:43:15;18.73;;;4.30;;
23754;SDS011;12057;52.042;6.830;2022-10-16T16:48:16;27.23;;;5.10;;
23754;SDS011;12057;52.042;6.830;2022-10-16T16:53:17;23.27;;;4.23;;
23754;SDS011;12057;52.042;6.830;2022-10-16T16:58:17;23.17;;;5.37;;
23754;SDS011;12057;52.042;6.830;2022-10-16T17:03:18;24.07;;;4.93;;
23754;SDS011;12057;52.042;6.830;2022-10-16T17:08:19;38.73;;;6.70;;
23754;SDS011;12057;52.042;6.830;2022-10-16T17:13:20;85.20;;;21.70;;
23754;SDS011;12057;52.042;6.830;2022-10-16T17:18:22;27.83;;;9.18;;
23754;SDS011;12057;52.042;6.830;2022-10-16T17:23:23;26.15;;;6.00;;
23754;SDS011;12057;52.042;6.830;2022-10-16T17:28:24;21.77;;;5.27;;
23754;SDS011;12057;52.042;6.830;2022-10-16T17:33:25;26.17;;;8.63;;
23754;SDS011;12057;52.042;6.830;2022-10-16T17:38:25;27.43;;;10.10;;
23754;SDS011;12057;52.042;6.830;2022-10-16T17:43:26;41.83;;;10.00;;
23754;SDS011;12057;52.042;6.830;2022-10-16T17:48:27;26.17;;;8.40;;
23754;SDS011;12057;52.042;6.830;2022-10-16T17:53:28;23.57;;;6.30;;
23754;SDS011;12057;52.042;6.830;2022-10-16T17:58:28;22.80;;;6.13;;
23754;SDS011;12057;52.042;6.830;2022-10-16T18:03:29;19.00;;;5.23;;
23754;SDS011;12057;52.042;6.830;2022-10-16T18:08:30;17.83;;;4.00;;
23754;SDS011;12057;52.042;6.830;2022-10-16T18:13:31;13.27;;;4.70;;
23754;SDS011;12057;52.042;6.830;2022-10-16T18:18:32;24.23;;;8.17;;
23754;SDS011;12057;52.042;6.830;2022-10-16T18:23:33;42.47;;;9.13;;
23754;SDS011;12057;52.042;6.830;2022-10-16T18:28:35;20.80;;;6.30;;
23754;SDS011;12057;52.042;6.830;2022-10-16T18:33:36;38.00;;;9.77;;
23754;SDS011;12057;52.042;6.830;2022-10-16T18:43:41;33.72;;;6.15;;
23754;SDS011;12057;52.042;6.830;2022-10-16T18:48:42;22.35;;;6.38;;
23754;SDS011;12057;52.042;6.830;2022-10-16T18:58:47;24.42;;;6.25;;
23754;SDS011;12057;52.042;6.830;2022-10-16T19:03:51;25.70;;;7.70;;
23754;SDS011;12057;52.042;6.830;2022-10-16T19:08:57;17.63;;;5.88;;
23754;SDS011;12057;52.042;6.830;2022-10-16T19:13:58;25.40;;;7.37;;
23754;SDS011;12057;52.042;6.830;2022-10-16T19:18:59;23.57;;;9.33;;
23754;SDS011;12057;52.042;6.830;2022-10-16T19:24:02;32.67;;;11.38;;
23754;SDS011;12057;52.042;6.830;2022-10-16T19:29:03;36.63;;;11.50;;
23754;SDS011;12057;52.042;6.830;2022-10-16T19:34:06;33.33;;;9.10;;
23754;SDS011;12057;52.042;6.830;2022-10-16T19:39:11;22.00;;;7.20;;
23754;SDS011;12057;52.042;6.830;2022-10-16T19:44:14;30.42;;;8.07;;
23754;SDS011;12057;52.042;6.830;2022-10-16T19:49:16;27.10;;;7.90;;
23754;SDS011;12057;52.042;6.830;2022-10-16T19:54:20;40.15;;;7.03;;
23754;SDS011;12057;52.042;6.830;2022-10-16T19:59:21;29.67;;;6.80;;
23754;SDS011;12057;52.042;6.830;2022-10-16T20:04:21;39.73;;;10.13;;
23754;SDS011;12057;52.042;6.830;2022-10-16T20:09:22;31.07;;;12.17;;
23754;SDS011;12057;52.042;6.830;2022-10-16T20:14:23;32.07;;;11.90;;
23754;SDS011;12057;52.042;6.830;2022-10-16T20:19:23;38.37;;;6.10;;
23754;SDS011;12057;52.042;6.830;2022-10-16T20:24:24;15.40;;;6.53;;
23754;SDS011;12057;52.042;6.830;2022-10-16T20:29:25;16.23;;;6.67;;
23754;SDS011;12057;52.042;6.830;2022-10-16T20:34:26;34.70;;;7.87;;
23754;SDS011;12057;52.042;6.830;2022-10-16T20:39:29;24.55;;;7.43;;
23754;SDS011;12057;52.042;6.830;2022-10-16T20:44:30;13.80;;;5.73;;
23754;SDS011;12057;52.042;6.830;2022-10-16T20:49:34;25.07;;;6.33;;
23754;SDS011;12057;52.042;6.830;2022-10-16T20:54:34;27.75;;;6.63;;
23754;SDS011;12057;52.042;6.830;2022-10-16T20:59:35;14.50;;;6.37;;
23754;SDS011;12057;52.042;6.830;2022-10-16T21:04:38;41.83;;;8.48;;
23754;SDS011;12057;52.042;6.830;2022-10-16T21:09:39;15.70;;;7.00;;
23754;SDS011;12057;52.042;6.830;2022-10-16T21:14:40;14.83;;;7.10;;
23754;SDS011;12057;52.042;6.830;2022-10-16T21:19:40;15.53;;;6.97;;
23754;SDS011;12057;52.042;6.830;2022-10-16T21:24:41;19.87;;;7.57;;
23754;SDS011;12057;52.042;6.830;2022-10-16T21:29:42;21.93;;;7.50;;
23754;SDS011;12057;52.042;6.830;2022-10-16T21:34:42;19.37;;;6.70;;
23754;SDS011;12057;52.042;6.830;2022-10-16T21:39:43;30.43;;;8.27;;
23754;SDS011;12057;52.042;6.830;2022-10-16T21:44:44;22.77;;;8.67;;
23754;SDS011;12057;52.042;6.830;2022-10-16T21:49:44;22.00;;;8.17;;
23754;SDS011;12057;52.042;6.830;2022-10-16T21:54:45;22.13;;;7.90;;
23754;SDS011;12057;52.042;6.830;2022-10-16T21:59:47;19.17;;;6.93;;
23754;SDS011;12057;52.042;6.830;2022-10-16T22:04:49;17.63;;;6.97;;
23754;SDS011;12057;52.042;6.830;2022-10-16T22:09:49;19.43;;;8.00;;
23754;SDS011;12057;52.042;6.830;2022-10-16T22:14:50;19.90;;;8.67;;
23754;SDS011;12057;52.042;6.830;2022-10-16T22:19:51;15.37;;;7.57;;
23754;SDS011;12057;52.042;6.830;2022-10-16T22:24:51;15.13;;;7.67;;
23754;SDS011;12057;52.042;6.830;2022-10-16T22:29:52;21.73;;;8.20;;
23754;SDS011;12057;52.042;6.830;2022-10-16T22:34:53;21.70;;;8.30;;
23754;SDS011;12057;52.042;6.830;2022-10-16T22:39:53;18.53;;;8.60;;
23754;SDS011;12057;52.042;6.830;2022-10-16T22:44:54;33.40;;;9.70;;
23754;SDS011;12057;52.042;6.830;2022-10-16T22:49:55;25.30;;;10.20;;
23754;SDS011;12057;52.042;6.830;2022-10-16T22:54:55;22.17;;;10.43;;
23754;SDS011;12057;52.042;6.830;2022-10-16T22:59:56;23.20;;;10.60;;
23754;SDS011;12057;52.042;6.830;2022-10-16T23:04:57;26.47;;;10.47;;
23754;SDS011;12057;52.042;6.830;2022-10-16T23:09:57;13.37;;;9.03;;
23754;SDS011;12057;52.042;6.830;2022-10-16T23:14:58;20.27;;;10.20;;
23754;SDS011;12057;52.042;6.830;2022-10-16T23:20:02;23.00;;;10.57;;
23754;SDS011;12057;52.042;6.830;2022-10-16T23:25:03;23.05;;;10.15;;
23754;SDS011;12057;52.042;6.830;2022-10-16T23:35:06;19.25;;;10.85;;
23754;SDS011;12057;52.042;6.830;2022-10-16T23:40:07;27.67;;;13.98;;
23754;SDS011;12057;52.042;6.830;2022-10-16T23:45:08;36.57;;;10.57;;
23754;SDS011;12057;52.042;6.830;2022-10-16T23:50:09;28.67;;;11.93;;
23754;SDS011;12057;52.042;6.830;2022-10-16T23:55:09;25.47;;;10.70;;
